sensor_id;sensor_type;location;lat;lon;timestamp;pressure;altitude;pressure_sealevel;temperature;humidity
13734;BME280;43298;52.560;13.508;2023-03-14T00:00:14;98672.16;;;12.55;100.00
13734;BME280;43298;52.560;13.508;2023-03-14T00:02:40;98682.66;;;12.53;100.00
13734;BME280;43298;52.560;13.508;2023-03-14T00:05:08;98696.19;;;12.36;100.00
13734;BME280;43298;52.560;13.508;2023-03-14T00:07:36;98693.06;;;12.42;100.00
13734;BME280;43298;52.560;13.508;2023-03-14T00:10:05;98690.09;;;12.26;100.00
13734;BME280;43298;52.560;13.508;2023-03-14T00:12:32;98683.13;;;12.27;100.00
13734;BME280;43298;52.560;13.508;2023-03-14T00:14:58;98675.00;;;12.31;100.00
13734;BME280;43298;52.560;13.508;2023-03-14T00:17:26;98679.16;;;12.23;100.00
13734;BME280;43298;52.560;13.508;2023-03-14T00:19:53;98664.38;;;12.34;100.00
13734;BME280;43298;52.560;13.508;2023-03-14T00:22:20;98642.75;;;12.24;100.00
13734;BME280;43298;52.560;13.508;2023-03-14T00:24:46;98640.97;;;12.25;100.00
13734;BME280;43298;52.560;13.508;2023-03-14T00:27:11;98639.06;;;12.06;100.00
13734;BME280;43298;52.560;13.508;2023-03-14T00:29:37;98627.06;;;12.05;100.00
13734;BME280;43298;52.560;13.508;2023-03-14T00:32:03;98633.81;;;11.96;100.00
13734;BME280;43298;52.560;13.508;2023-03-14T00:34:31;98623.38;;;11.87;100.00
13734;BME280;43298;52.560;13.508;2023-03-14T00:36:57;98617.59;;;11.83;100.00
13734;BME280;43298;52.560;13.508;2023-03-14T00:39:23;98610.06;;;11.80;100.00
13734;BME280;43298;52.560;13.508;2023-03-14T00:44:29;98603.59;;;11.86;100.00
13734;BME280;43298;52.560;13.508;2023-03-14T00:46:55;98601.63;;;11.78;100.00
13734;BME280;43298;52.560;13.508;2023-03-14T00:49:21;98622.22;;;11.80;100.00
13734;BME280;43298;52.560;13.508;2023-03-14T00:51:46;98621.72;;;11.86;100.00
13734;BME280;43298;52.560;13.508;2023-03-14T00:54:12;98607.81;;;11.87;100.00
13734;BME280;43298;52.560;13.508;2023-03-14T00:56:38;98601.25;;;11.83;100.00
13734;BME280;43298;52.560;13.508;2023-03-14T00:59:04;98594.94;;;11.76;100.00
13734;BME280;43298;52.560;13.508;2023-03-14T01:01:30;98586.94;;;11.68;100.00
13734;BME280;43298;52.560;13.508;2023-03-14T01:03:56;98588.19;;;11.73;100.00
13734;BME280;43298;52.560;13.508;2023-03-14T01:06:25;98564.03;;;11.63;100.00
13734;BME280;43298;52.560;13.508;2023-03-14T01:08:52;98567.66;;;11.61;100.00
13734;BME280;43298;52.560;13.508;2023-03-14T01:11:31;98565.41;;;11.67;100.00
13734;BME280;43298;52.560;13.508;2023-03-14T01:13:58;98561.44;;;11.63;100.00
13734;BME280;43298;52.560;13.508;2023-03-14T01:16:27;98577.28;;;11.59;100.00
13734;BME280;43298;52.560;13.508;2023-03-14T01:18:53;98578.00;;;11.50;100.00
13734;BME280;43298;52.560;13.508;2023-03-14T01:21:27;98602.72;;;11.43;100.00
13734;BME280;43298;52.560;13.508;2023-03-14T01:23:56;98605.06;;;11.57;100.00
13734;BME280;43298;52.560;13.508;2023-03-14T01:26:25;98628.34;;;11.57;100.00
13734;BME280;43298;52.560;13.508;2023-03-14T01:28:53;98642.00;;;11.59;100.00
13734;BME280;43298;52.560;13.508;2023-03-14T01:31:19;98648.81;;;11.60;100.00
13734;BME280;43298;52.560;13.508;2023-03-14T01:33:45;98644.59;;;11.59;100.00
13734;BME280;43298;52.560;13.508;2023-03-14T01:36:12;98640.63;;;11.66;100.00
13734;BME280;43298;52.560;13.508;2023-03-14T01:38:39;98652.16;;;11.62;100.00
13734;BME280;43298;52.560;13.508;2023-03-14T01:41:07;98648.16;;;11.69;100.00
13734;BME280;43298;52.560;13.508;2023-03-14T01:43:33;98648.72;;;11.72;100.00
13734;BME280;43298;52.560;13.508;2023-03-14T01:49:24;98654.56;;;11.85;100.00
13734;BME280;43298;52.560;13.508;2023-03-14T01:52:16;98660.78;;;11.94;100.00
13734;BME280;43298;52.560;13.508;2023-03-14T01:54:51;98658.91;;;11.85;100.00
13734;BME280;43298;52.560;13.508;2023-03-14T01:57:32;98668.56;;;11.94;100.00
13734;BME280;43298;52.560;13.508;2023-03-14T02:00:11;98662.19;;;11.98;100.00
13734;BME280;43298;52.560;13.508;2023-03-14T02:02:45;98650.41;;;11.94;100.00
13734;BME280;43298;52.560;13.508;2023-03-14T02:05:14;98638.06;;;11.86;100.00
13734;BME280;43298;52.560;13.508;2023-03-14T02:07:52;98626.19;;;11.84;100.00
13734;BME280;43298;52.560;13.508;2023-03-14T02:10:25;98625.03;;;11.77;100.00
13734;BME280;43298;52.560;13.508;2023-03-14T02:12:55;98634.00;;;11.73;100.00
13734;BME280;43298;52.560;13.508;2023-03-14T02:15:22;98632.72;;;11.67;100.00
13734;BME280;43298;52.560;13.508;2023-03-14T02:17:49;98624.38;;;11.64;100.00
13734;BME280;43298;52.560;13.508;2023-03-14T02:22:55;98623.66;;;11.73;100.00
13734;BME280;43298;52.560;13.508;2023-03-14T02:25:48;98609.19;;;11.59;100.00
13734;BME280;43298;52.560;13.508;2023-03-14T02:28:17;98607.19;;;11.52;100.00
13734;BME280;43298;52.560;13.508;2023-03-14T02:30:44;98607.66;;;11.57;100.00
13734;BME280;43298;52.560;13.508;2023-03-14T02:33:14;98601.31;;;11.50;100.00
13734;BME280;43298;52.560;13.508;2023-03-14T02:35:53;98607.75;;;11.55;100.00
13734;BME280;43298;52.560;13.508;2023-03-14T02:38:31;98606.59;;;11.59;100.00
13734;BME280;43298;52.560;13.508;2023-03-14T02:40:59;98601.91;;;11.64;100.00
13734;BME280;43298;52.560;13.508;2023-03-14T02:43:25;98597.56;;;11.65;100.00
13734;BME280;43298;52.560;13.508;2023-03-14T02:45:51;98595.41;;;11.59;100.00
13734;BME280;43298;52.560;13.508;2023-03-14T02:48:36;98592.59;;;11.73;100.00
13734;BME280;43298;52.560;13.508;2023-03-14T02:51:05;98585.75;;;11.72;100.00
13734;BME280;43298;52.560;13.508;2023-03-14T02:53:36;98583.41;;;11.69;100.00
13734;BME280;43298;52.560;13.508;2023-03-14T02:56:04;98574.94;;;11.67;100.00
13734;BME280;43298;52.560;13.508;2023-03-14T02:58:30;98572.34;;;11.56;100.00
13734;BME280;43298;52.560;13.508;2023-03-14T03:00:56;98571.41;;;11.57;100.00
13734;BME280;43298;52.560;13.508;2023-03-14T03:03:22;98554.84;;;11.48;100.00
13734;BME280;43298;52.560;13.508;2023-03-14T03:05:53;98549.44;;;11.51;100.00
13734;BME280;43298;52.560;13.508;2023-03-14T03:08:21;98536.38;;;11.53;100.00
13734;BME280;43298;52.560;13.508;2023-03-14T03:10:48;98543.94;;;11.45;100.00
13734;BME280;43298;52.560;13.508;2023-03-14T03:13:15;98534.41;;;11.45;100.00
13734;BME280;43298;52.560;13.508;2023-03-14T03:15:41;98510.66;;;11.40;100.00
13734;BME280;43298;52.560;13.508;2023-03-14T03:18:07;98497.38;;;11.34;100.00
13734;BME280;43298;52.560;13.508;2023-03-14T03:20:33;98491.72;;;11.40;100.00
13734;BME280;43298;52.560;13.508;2023-03-14T03:22:59;98494.09;;;11.32;100.00
13734;BME280;43298;52.560;13.508;2023-03-14T03:25:26;98489.00;;;11.41;100.00
13734;BME280;43298;52.560;13.508;2023-03-14T03:27:52;98493.56;;;11.49;100.00
13734;BME280;43298;52.560;13.508;2023-03-14T03:30:18;98494.75;;;11.45;100.00
13734;BME280;43298;52.560;13.508;2023-03-14T03:32:44;98500.66;;;11.47;100.00
13734;BME280;43298;52.560;13.508;2023-03-14T03:35:10;98515.69;;;11.42;100.00
13734;BME280;43298;52.560;13.508;2023-03-14T03:37:36;98527.81;;;11.41;100.00
13734;BME280;43298;52.560;13.508;2023-03-14T03:40:02;98517.72;;;11.38;100.00
13734;BME280;43298;52.560;13.508;2023-03-14T03:42:31;98525.84;;;11.34;100.00
13734;BME280;43298;52.560;13.508;2023-03-14T03:44:59;98530.56;;;11.40;100.00
13734;BME280;43298;52.560;13.508;2023-03-14T03:47:25;98528.66;;;11.42;100.00
13734;BME280;43298;52.560;13.508;2023-03-14T03:49:51;98528.19;;;11.37;100.00
13734;BME280;43298;52.560;13.508;2023-03-14T03:52:17;98520.34;;;11.27;100.00
13734;BME280;43298;52.560;13.508;2023-03-14T03:54:42;98527.97;;;11.29;100.00
13734;BME280;43298;52.560;13.508;2023-03-14T03:57:08;98523.72;;;11.39;100.00
13734;BME280;43298;52.560;13.508;2023-03-14T03:59:34;98515.50;;;11.34;100.00
13734;BME280;43298;52.560;13.508;2023-03-14T04:02:00;98496.44;;;11.35;100.00
13734;BME280;43298;52.560;13.508;2023-03-14T04:04:26;98509.25;;;11.36;100.00
13734;BME280;43298;52.560;13.508;2023-03-14T04:06:52;98517.88;;;11.26;100.00
13734;BME280;43298;52.560;13.508;2023-03-14T04:09:17;98520.59;;;11.24;100.00
13734;BME280;43298;52.560;13.508;2023-03-14T04:11:43;98525.66;;;11.26;100.00
13734;BME280;43298;52.560;13.508;2023-03-14T04:14:09;98509.38;;;11.35;100.00
13734;BME280;43298;52.560;13.508;2023-03-14T04:16:35;98505.06;;;11.24;100.00
13734;BME280;43298;52.560;13.508;2023-03-14T04:19:02;98515.78;;;11.20;100.00
13734;BME280;43298;52.560;13.508;2023-03-14T04:21:28;98516.13;;;11.15;100.00
13734;BME280;43298;52.560;13.508;2023-03-14T04:23:54;98524.25;;;11.11;100.00
13734;BME280;43298;52.560;13.508;2023-03-14T04:26:20;98515.31;;;11.26;100.00
13734;BME280;43298;52.560;13.508;2023-03-14T04:28:46;98510.13;;;11.26;100.00
13734;BME280;43298;52.560;13.508;2023-03-14T04:31:16;98506.72;;;11.25;100.00
13734;BME280;43298;52.560;13.508;2023-03-14T04:33:44;98504.25;;;11.24;100.00
13734;BME280;43298;52.560;13.508;2023-03-14T04:36:10;98496.13;;;11.28;100.00
13734;BME280;43298;52.560;13.508;2023-03-14T04:38:36;98500.41;;;11.39;100.00
13734;BME280;43298;52.560;13.508;2023-03-14T04:41:02;98497.63;;;11.31;100.00
13734;BME280;43298;52.560;13.508;2023-03-14T04:43:29;98481.72;;;11.15;100.00
13734;BME280;43298;52.560;13.508;2023-03-14T04:45:56;98486.25;;;11.22;100.00
13734;BME280;43298;52.560;13.508;2023-03-14T04:48:24;98475.34;;;11.19;100.00
13734;BME280;43298;52.560;13.508;2023-03-14T04:50:50;98472.75;;;11.19;100.00
13734;BME280;43298;52.560;13.508;2023-03-14T04:53:17;98469.66;;;11.25;100.00
13734;BME280;43298;52.560;13.508;2023-03-14T04:55:52;98462.88;;;11.13;100.00
13734;BME280;43298;52.560;13.508;2023-03-14T04:58:19;98458.75;;;11.21;100.00
13734;BME280;43298;52.560;13.508;2023-03-14T05:00:46;98447.38;;;11.13;100.00
13734;BME280;43298;52.560;13.508;2023-03-14T05:03:13;98450.53;;;11.16;100.00
13734;BME280;43298;52.560;13.508;2023-03-14T05:05:39;98456.09;;;11.12;100.00
13734;BME280;43298;52.560;13.508;2023-03-14T05:08:05;98457.84;;;11.11;100.00
13734;BME280;43298;52.560;13.508;2023-03-14T05:10:31;98469.22;;;11.20;100.00
13734;BME280;43298;52.560;13.508;2023-03-14T05:12:57;98458.78;;;11.10;100.00
13734;BME280;43298;52.560;13.508;2023-03-14T05:15:23;98458.03;;;11.19;100.00
13734;BME280;43298;52.560;13.508;2023-03-14T05:17:48;98468.50;;;11.18;100.00
13734;BME280;43298;52.560;13.508;2023-03-14T05:20:14;98455.84;;;11.15;100.00
13734;BME280;43298;52.560;13.508;2023-03-14T05:22:41;98444.78;;;11.13;100.00
13734;BME280;43298;52.560;13.508;2023-03-14T05:25:08;98434.19;;;11.16;100.00
13734;BME280;43298;52.560;13.508;2023-03-14T05:27:34;98437.56;;;11.27;100.00
13734;BME280;43298;52.560;13.508;2023-03-14T05:30:01;98435.34;;;11.23;100.00
13734;BME280;43298;52.560;13.508;2023-03-14T05:32:28;98431.75;;;11.35;100.00
13734;BME280;43298;52.560;13.508;2023-03-14T05:34:54;98432.41;;;11.27;100.00
13734;BME280;43298;52.560;13.508;2023-03-14T05:37:24;98433.56;;;11.23;100.00
13734;BME280;43298;52.560;13.508;2023-03-14T05:39:50;98439.75;;;11.32;100.00
13734;BME280;43298;52.560;13.508;2023-03-14T05:42:16;98440.00;;;11.29;100.00
13734;BME280;43298;52.560;13.508;2023-03-14T05:44:41;98428.84;;;11.28;100.00
13734;BME280;43298;52.560;13.508;2023-03-14T05:47:07;98440.00;;;11.29;100.00
13734;BME280;43298;52.560;13.508;2023-03-14T05:49:33;98447.63;;;11.30;100.00
13734;BME280;43298;52.560;13.508;2023-03-14T05:51:59;98450.09;;;11.32;100.00
13734;BME280;43298;52.560;13.508;2023-03-14T05:54:24;98448.53;;;11.40;100.00
13734;BME280;43298;52.560;13.508;2023-03-14T05:56:50;98449.25;;;11.42;100.00
13734;BME280;43298;52.560;13.508;2023-03-14T05:59:16;98443.97;;;11.44;100.00
13734;BME280;43298;52.560;13.508;2023-03-14T06:01:42;98448.53;;;11.40;100.00
13734;BME280;43298;52.560;13.508;2023-03-14T06:04:07;98444.44;;;11.38;100.00
13734;BME280;43298;52.560;13.508;2023-03-14T06:06:33;98441.16;;;11.36;100.00
13734;BME280;43298;52.560;13.508;2023-03-14T06:08:59;98442.41;;;11.41;100.00
13734;BME280;43298;52.560;13.508;2023-03-14T06:11:25;98439.38;;;11.36;100.00
13734;BME280;43298;52.560;13.508;2023-03-14T06:13:51;98448.47;;;11.31;100.00
13734;BME280;43298;52.560;13.508;2023-03-14T06:16:17;98444.50;;;11.47;100.00
13734;BME280;43298;52.560;13.508;2023-03-14T06:18:43;98450.41;;;11.49;100.00
13734;BME280;43298;52.560;13.508;2023-03-14T06:21:09;98448.88;;;11.47;100.00
13734;BME280;43298;52.560;13.508;2023-03-14T06:23:34;98447.28;;;11.55;100.00
13734;BME280;43298;52.560;13.508;2023-03-14T06:26:00;98442.25;;;11.54;100.00
13734;BME280;43298;52.560;13.508;2023-03-14T06:28:26;98462.81;;;11.55;100.00
13734;BME280;43298;52.560;13.508;2023-03-14T06:30:52;98460.50;;;11.52;100.00
13734;BME280;43298;52.560;13.508;2023-03-14T06:33:18;98464.22;;;11.59;100.00
13734;BME280;43298;52.560;13.508;2023-03-14T06:35:44;98461.53;;;11.61;100.00
13734;BME280;43298;52.560;13.508;2023-03-14T06:38:09;98470.97;;;11.62;100.00
13734;BME280;43298;52.560;13.508;2023-03-14T06:40:35;98469.50;;;11.69;100.00
13734;BME280;43298;52.560;13.508;2023-03-14T06:43:01;98461.75;;;11.69;100.00
13734;BME280;43298;52.560;13.508;2023-03-14T06:45:27;98464.09;;;11.72;100.00
13734;BME280;43298;52.560;13.508;2023-03-14T06:47:53;98470.41;;;11.79;100.00
13734;BME280;43298;52.560;13.508;2023-03-14T06:50:19;98476.25;;;11.81;100.00
13734;BME280;43298;52.560;13.508;2023-03-14T06:52:44;98485.41;;;11.85;100.00
13734;BME280;43298;52.560;13.508;2023-03-14T06:55:14;98492.09;;;11.87;100.00
13734;BME280;43298;52.560;13.508;2023-03-14T06:57:40;98503.28;;;11.88;100.00
13734;BME280;43298;52.560;13.508;2023-03-14T07:00:07;98489.00;;;11.93;100.00
13734;BME280;43298;52.560;13.508;2023-03-14T07:02:33;98487.72;;;12.08;100.00
13734;BME280;43298;52.560;13.508;2023-03-14T07:04:59;98492.53;;;12.13;100.00
13734;BME280;43298;52.560;13.508;2023-03-14T07:07:27;98509.34;;;12.18;100.00
13734;BME280;43298;52.560;13.508;2023-03-14T07:09:53;98503.13;;;12.31;100.00
13734;BME280;43298;52.560;13.508;2023-03-14T07:12:19;98517.53;;;12.44;100.00
13734;BME280;43298;52.560;13.508;2023-03-14T07:14:45;98521.25;;;12.51;100.00
13734;BME280;43298;52.560;13.508;2023-03-14T07:17:10;98522.81;;;12.43;100.00
13734;BME280;43298;52.560;13.508;2023-03-14T07:19:36;98527.97;;;12.33;100.00
13734;BME280;43298;52.560;13.508;2023-03-14T07:22:04;98522.34;;;12.28;100.00
13734;BME280;43298;52.560;13.508;2023-03-14T07:24:30;98514.13;;;12.23;100.00
13734;BME280;43298;52.560;13.508;2023-03-14T07:26:56;98522.16;;;12.20;100.00
13734;BME280;43298;52.560;13.508;2023-03-14T07:29:22;98523.91;;;12.19;100.00
13734;BME280;43298;52.560;13.508;2023-03-14T07:31:48;98525.06;;;12.27;100.00
13734;BME280;43298;52.560;13.508;2023-03-14T07:34:14;98522.69;;;12.44;100.00
13734;BME280;43298;52.560;13.508;2023-03-14T07:36:39;98525.06;;;12.57;100.00
13734;BME280;43298;52.560;13.508;2023-03-14T07:39:05;98520.06;;;12.65;100.00
13734;BME280;43298;52.560;13.508;2023-03-14T07:41:32;98521.66;;;12.56;100.00
13734;BME280;43298;52.560;13.508;2023-03-14T07:43:58;98520.38;;;12.41;100.00
13734;BME280;43298;52.560;13.508;2023-03-14T07:46:24;98526.06;;;12.35;100.00
13734;BME280;43298;52.560;13.508;2023-03-14T07:48:50;98519.78;;;12.38;100.00
13734;BME280;43298;52.560;13.508;2023-03-14T07:51:15;98521.41;;;12.29;100.00
13734;BME280;43298;52.560;13.508;2023-03-14T07:53:41;98535.16;;;12.30;100.00
13734;BME280;43298;52.560;13.508;2023-03-14T07:56:09;98533.78;;;12.26;100.00
13734;BME280;43298;52.560;13.508;2023-03-14T07:58:34;98530.34;;;12.25;100.00
13734;BME280;43298;52.560;13.508;2023-03-14T08:01:00;98529.72;;;12.33;100.00
13734;BME280;43298;52.560;13.508;2023-03-14T08:03:26;98517.69;;;12.52;100.00
13734;BME280;43298;52.560;13.508;2023-03-14T08:05:52;98530.31;;;12.66;100.00
13734;BME280;43298;52.560;13.508;2023-03-14T08:08:19;98522.16;;;12.80;100.00
13734;BME280;43298;52.560;13.508;2023-03-14T08:10:45;98520.84;;;12.95;100.00
13734;BME280;43298;52.560;13.508;2023-03-14T08:13:12;98517.06;;;12.99;100.00
13734;BME280;43298;52.560;13.508;2023-03-14T08:15:37;98517.75;;;13.11;100.00
13734;BME280;43298;52.560;13.508;2023-03-14T08:18:04;98500.25;;;13.03;100.00
13734;BME280;43298;52.560;13.508;2023-03-14T08:20:30;98503.03;;;12.81;100.00
13734;BME280;43298;52.560;13.508;2023-03-14T08:23:00;98501.94;;;12.74;100.00
13734;BME280;43298;52.560;13.508;2023-03-14T08:25:28;98490.78;;;12.93;100.00
13734;BME280;43298;52.560;13.508;2023-03-14T08:27:54;98504.66;;;13.03;100.00
13734;BME280;43298;52.560;13.508;2023-03-14T08:30:21;98509.38;;;12.98;100.00
13734;BME280;43298;52.560;13.508;2023-03-14T08:32:48;98503.91;;;12.91;100.00
13734;BME280;43298;52.560;13.508;2023-03-14T08:35:14;98504.47;;;12.95;100.00
13734;BME280;43298;52.560;13.508;2023-03-14T08:37:40;98504.38;;;13.06;100.00
13734;BME280;43298;52.560;13.508;2023-03-14T08:40:07;98510.09;;;13.00;100.00
13734;BME280;43298;52.560;13.508;2023-03-14T08:42:34;98507.44;;;12.90;100.00
13734;BME280;43298;52.560;13.508;2023-03-14T08:44:59;98519.88;;;12.96;100.00
13734;BME280;43298;52.560;13.508;2023-03-14T08:47:26;98511.81;;;12.90;100.00
13734;BME280;43298;52.560;13.508;2023-03-14T08:49:51;98520.72;;;12.97;100.00
13734;BME280;43298;52.560;13.508;2023-03-14T08:52:17;98523.63;;;13.03;100.00
13734;BME280;43298;52.560;13.508;2023-03-14T08:54:44;98522.81;;;13.03;100.00
13734;BME280;43298;52.560;13.508;2023-03-14T08:57:10;98536.72;;;13.02;100.00
13734;BME280;43298;52.560;13.508;2023-03-14T08:59:36;98529.09;;;13.00;100.00
13734;BME280;43298;52.560;13.508;2023-03-14T09:02:02;98529.13;;;12.89;100.00
13734;BME280;43298;52.560;13.508;2023-03-14T09:04:30;98537.47;;;12.83;100.00
13734;BME280;43298;52.560;13.508;2023-03-14T09:06:56;98532.06;;;12.66;100.00
13734;BME280;43298;52.560;13.508;2023-03-14T09:09:24;98529.88;;;12.61;100.00
13734;BME280;43298;52.560;13.508;2023-03-14T09:11:52;98524.56;;;12.63;100.00
13734;BME280;43298;52.560;13.508;2023-03-14T09:14:17;98524.59;;;12.72;100.00
13734;BME280;43298;52.560;13.508;2023-03-14T09:16:43;98527.53;;;12.98;100.00
13734;BME280;43298;52.560;13.508;2023-03-14T09:19:09;98517.13;;;13.28;100.00
13734;BME280;43298;52.560;13.508;2023-03-14T09:21:35;98512.91;;;13.55;100.00
13734;BME280;43298;52.560;13.508;2023-03-14T09:24:01;98501.81;;;13.72;100.00
13734;BME280;43298;52.560;13.508;2023-03-14T09:26:27;98497.44;;;13.82;100.00
13734;BME280;43298;52.560;13.508;2023-03-14T09:28:53;98504.59;;;14.72;100.00
13734;BME280;43298;52.560;13.508;2023-03-14T09:31:18;98495.41;;;15.23;100.00
13734;BME280;43298;52.560;13.508;2023-03-14T09:33:44;98496.41;;;15.57;100.00
13734;BME280;43298;52.560;13.508;2023-03-14T09:36:10;98492.06;;;15.83;100.00
13734;BME280;43298;52.560;13.508;2023-03-14T09:38:37;98481.09;;;15.54;100.00
13734;BME280;43298;52.560;13.508;2023-03-14T09:41:13;98483.81;;;15.87;100.00
13734;BME280;43298;52.560;13.508;2023-03-14T09:43:42;98480.66;;;16.01;100.00
13734;BME280;43298;52.560;13.508;2023-03-14T09:46:10;98480.66;;;15.84;100.00
13734;BME280;43298;52.560;13.508;2023-03-14T09:48:37;98482.47;;;16.60;100.00
13734;BME280;43298;52.560;13.508;2023-03-14T09:51:11;98477.84;;;15.77;100.00
13734;BME280;43298;52.560;13.508;2023-03-14T09:53:43;98490.13;;;15.15;100.00
13734;BME280;43298;52.560;13.508;2023-03-14T09:56:28;98498.13;;;14.76;100.00
13734;BME280;43298;52.560;13.508;2023-03-14T09:58:59;98499.50;;;14.53;100.00
13734;BME280;43298;52.560;13.508;2023-03-14T10:01:29;98509.13;;;14.24;100.00
13734;BME280;43298;52.560;13.508;2023-03-14T10:03:59;98510.50;;;14.09;100.00
13734;BME280;43298;52.560;13.508;2023-03-14T10:06:29;98515.19;;;14.06;100.00
13734;BME280;43298;52.560;13.508;2023-03-14T10:08:56;98518.47;;;13.98;100.00
13734;BME280;43298;52.560;13.508;2023-03-14T10:11:24;98515.06;;;13.88;100.00
13734;BME280;43298;52.560;13.508;2023-03-14T10:14:10;98518.63;;;13.78;100.00
13734;BME280;43298;52.560;13.508;2023-03-14T10:16:45;98520.13;;;13.80;100.00
13734;BME280;43298;52.560;13.508;2023-03-14T10:19:14;98515.63;;;13.82;100.00
13734;BME280;43298;52.560;13.508;2023-03-14T10:21:43;98516.56;;;13.81;100.00
13734;BME280;43298;52.560;13.508;2023-03-14T10:26:58;98513.03;;;13.82;100.00
13734;BME280;43298;52.560;13.508;2023-03-14T10:29:27;98519.84;;;13.93;100.00
13734;BME280;43298;52.560;13.508;2023-03-14T10:32:00;98519.28;;;14.08;100.00
13734;BME280;43298;52.560;13.508;2023-03-14T10:34:33;98513.13;;;14.09;100.00
13734;BME280;43298;52.560;13.508;2023-03-14T10:37:23;98505.91;;;14.03;100.00
13734;BME280;43298;52.560;13.508;2023-03-14T10:39:53;98515.72;;;14.00;100.00
13734;BME280;43298;52.560;13.508;2023-03-14T10:42:28;98517.13;;;13.94;100.00
13734;BME280;43298;52.560;13.508;2023-03-14T10:45:04;98510.69;;;13.89;100.00
13734;BME280;43298;52.560;13.508;2023-03-14T10:47:33;98507.53;;;13.85;100.00
13734;BME280;43298;52.560;13.508;2023-03-14T10:50:27;98506.47;;;13.78;100.00
13734;BME280;43298;52.560;13.508;2023-03-14T10:52:55;98515.91;;;13.79;100.00
13734;BME280;43298;52.560;13.508;2023-03-14T10:55:23;98514.66;;;13.83;100.00
13734;BME280;43298;52.560;13.508;2023-03-14T10:57:49;98511.38;;;13.81;100.00
13734;BME280;43298;52.560;13.508;2023-03-14T11:00:19;98510.31;;;13.84;100.00
13734;BME280;43298;52.560;13.508;2023-03-14T11:03:26;98515.91;;;13.79;100.00
13734;BME280;43298;52.560;13.508;2023-03-14T11:06:02;98520.16;;;13.71;100.00
13734;BME280;43298;52.560;13.508;2023-03-14T11:08:57;98508.66;;;13.73;100.00
13734;BME280;43298;52.560;13.508;2023-03-14T11:11:30;98516.56;;;13.81;100.00
13734;BME280;43298;52.560;13.508;2023-03-14T11:14:06;98513.03;;;13.92;100.00
13734;BME280;43298;52.560;13.508;2023-03-14T11:22:41;98513.69;;;14.03;100.00
13734;BME280;43298;52.560;13.508;2023-03-14T11:25:24;98509.44;;;14.02;100.00
13734;BME280;43298;52.560;13.508;2023-03-14T11:28:18;98503.44;;;14.02;100.00
13734;BME280;43298;52.560;13.508;2023-03-14T11:30:56;98506.97;;;14.01;100.00
13734;BME280;43298;52.560;13.508;2023-03-14T11:36:52;98510.41;;;14.01;100.00
13734;BME280;43298;52.560;13.508;2023-03-14T11:39:20;98490.97;;;14.05;100.00
13734;BME280;43298;52.560;13.508;2023-03-14T11:41:50;98499.59;;;14.06;100.00
13734;BME280;43298;52.560;13.508;2023-03-14T11:55:25;98505.03;;;14.12;100.00
13734;BME280;43298;52.560;13.508;2023-03-14T11:58:31;98514.63;;;14.21;100.00
13734;BME280;43298;52.560;13.508;2023-03-14T12:00:51;98499.84;;;14.22;100.00
13734;BME280;43298;52.560;13.508;2023-03-14T12:03:43;98501.50;;;14.23;100.00
13734;BME280;43298;52.560;13.508;2023-03-14T12:06:26;98503.75;;;14.45;100.00
13734;BME280;43298;52.560;13.508;2023-03-14T12:09:05;98496.78;;;14.36;100.00
13734;BME280;43298;52.560;13.508;2023-03-14T12:14:20;98497.94;;;14.24;100.00
13734;BME280;43298;52.560;13.508;2023-03-14T12:16:48;98500.22;;;14.36;100.00
13734;BME280;43298;52.560;13.508;2023-03-14T12:22:28;98491.22;;;14.67;100.00
13734;BME280;43298;52.560;13.508;2023-03-14T12:25:26;98492.97;;;14.67;100.00
13734;BME280;43298;52.560;13.508;2023-03-14T12:30:31;98487.97;;;14.56;100.00
13734;BME280;43298;52.560;13.508;2023-03-14T12:36:11;98483.69;;;14.18;100.00
13734;BME280;43298;52.560;13.508;2023-03-14T12:38:59;98480.03;;;14.11;100.00
13734;BME280;43298;52.560;13.508;2023-03-14T12:41:42;98483.00;;;14.35;100.00
13734;BME280;43298;52.560;13.508;2023-03-14T12:49:52;98476.13;;;14.71;100.00
13734;BME280;43298;52.560;13.508;2023-03-14T12:55:12;98469.91;;;14.54;100.00
13734;BME280;43298;52.560;13.508;2023-03-14T12:58:03;98465.34;;;14.29;100.00
13734;BME280;43298;52.560;13.508;2023-03-14T13:00:37;98482.16;;;14.35;100.00
13734;BME280;43298;52.560;13.508;2023-03-14T13:03:22;98480.78;;;14.40;100.00
13734;BME280;43298;52.560;13.508;2023-03-14T13:06:02;98462.19;;;14.26;100.00
13734;BME280;43298;52.560;13.508;2023-03-14T13:08:44;98466.47;;;14.27;100.00
13734;BME280;43298;52.560;13.508;2023-03-14T13:11:16;98457.72;;;13.99;100.00
13734;BME280;43298;52.560;13.508;2023-03-14T13:13:49;98470.94;;;13.60;100.00
13734;BME280;43298;52.560;13.508;2023-03-14T13:16:21;98481.25;;;12.93;100.00
13734;BME280;43298;52.560;13.508;2023-03-14T13:19:18;98469.06;;;12.45;100.00
13734;BME280;43298;52.560;13.508;2023-03-14T13:21:45;98473.19;;;12.47;100.00
13734;BME280;43298;52.560;13.508;2023-03-14T13:24:27;98465.84;;;12.52;100.00
13734;BME280;43298;52.560;13.508;2023-03-14T13:26:55;98462.56;;;12.50;100.00
13734;BME280;43298;52.560;13.508;2023-03-14T13:29:30;98456.22;;;12.34;100.00
13734;BME280;43298;52.560;13.508;2023-03-14T13:32:01;98462.97;;;12.25;100.00
13734;BME280;43298;52.560;13.508;2023-03-14T13:34:33;98447.81;;;12.51;100.00
13734;BME280;43298;52.560;13.508;2023-03-14T13:37:00;98439.94;;;12.71;100.00
13734;BME280;43298;52.560;13.508;2023-03-14T13:39:28;98432.94;;;13.68;100.00
13734;BME280;43298;52.560;13.508;2023-03-14T13:41:59;98420.63;;;14.53;100.00